Reseda, California
Current Conditions -  °F | °C
As of 7:51 PM on Friday 24 Oct 2014 (Local Time) from KVNY Reporting Station
Clear Clear  
Wind Chill: 75°   Ceiling: Unl
Heat Index: 75°   Visibility: 10mi
Dew Point: 38°   Wind: 3mph
Humidity: 26%   Direction: 320°NW
Pressure: 29.96"   Gusts: NA
Location:  34.2°N, 118.54°W
Report Text: KVNY 250251Z 32003KT 10SM CLR 24/03 A2996 RMK AO2 SLP139 T02390033 53009
Loading
Personal Weather Stations






























Interactive Weather Map
Tropical Storm Tracking
New forecast layout! Learn more

10-Day Weather Forecast

Advertisements
Track Severe Weather on mobile